KHUF/HUF METAR and TAF weather

Enter ICAO airport designator
Station Type Date Time Source
KHUF METAR 2022/06/28 08:53 UTC NOAA

KHUF 280853Z 00000KT 10SM CLR 12/11 A3025 RMK AO2 SLP239 T01170111 53001


Station Type Date Time Source
KHUF Decoded METAR 2022/06/28 08:53 UTC NOAA

TERRE HAUTE INTERNATIONAL -HULMAN FLD, IN, United States (KHUF) 39-27N 087-19W 179M
Jun 28, 2022 - 04:53 AM EDT / 2022.06.28 0853 UTC
Wind: Calm:0
Visibility: 10 mile(s):0
Sky conditions: clear
Temperature: 53.1 F (11.7 C)
Dew Point: 52.0 F (11.1 C)
Relative Humidity: 96%
Pressure (altimeter): 30.25 in. Hg (1024 hPa)
Pressure tendency: 0.00 inches (0.1 hPa) higher than three hours ago
ob: KHUF 280853Z 00000KT 10SM CLR 12/11 A3025 RMK AO2 SLP239 T01170111 53001
cycle: 9

Station Type Date Time Source
KHUF TAF 2022/06/28 06:22 UTC NOAA

TAF KHUF 280520Z 2806/2906 00000KT P6SM SCT250

Example: see airport list